sensor_id;sensor_type;location;lat;lon;timestamp;P1;durP1;ratioP1;P2;durP2;ratioP2
64857;SDS011;51335;51.148;6.950;2023-03-13T00:00:08;18.90;;;3.10;;
64857;SDS011;51335;51.148;6.950;2023-03-13T00:00:39;19.38;;;3.55;;
64857;SDS011;51335;51.148;6.950;2023-03-13T00:01:14;18.00;;;3.78;;
64857;SDS011;51335;51.148;6.950;2023-03-13T00:01:47;19.27;;;3.88;;
64857;SDS011;51335;51.148;6.950;2023-03-13T00:02:18;17.63;;;3.13;;
64857;SDS011;51335;51.148;6.950;2023-03-13T00:02:49;18.52;;;3.17;;
64857;SDS011;51335;51.148;6.950;2023-03-13T00:03:19;18.33;;;3.80;;
64857;SDS011;51335;51.148;6.950;2023-03-13T00:03:49;19.05;;;3.35;;
64857;SDS011;51335;51.148;6.950;2023-03-13T00:04:20;19.40;;;3.22;;
64857;SDS011;51335;51.148;6.950;2023-03-13T00:04:50;16.33;;;3.30;;
64857;SDS011;51335;51.148;6.950;2023-03-13T00:05:20;20.50;;;3.60;;
64857;SDS011;51335;51.148;6.950;2023-03-13T00:05:54;23.25;;;4.13;;
64857;SDS011;51335;51.148;6.950;2023-03-13T00:06:32;19.48;;;3.65;;
64857;SDS011;51335;51.148;6.950;2023-03-13T00:07:04;16.45;;;3.70;;
64857;SDS011;51335;51.148;6.950;2023-03-13T00:07:34;19.05;;;3.53;;
64857;SDS011;51335;51.148;6.950;2023-03-13T00:08:05;18.05;;;3.38;;
64857;SDS011;51335;51.148;6.950;2023-03-13T00:08:35;20.55;;;3.13;;
64857;SDS011;51335;51.148;6.950;2023-03-13T00:09:06;19.38;;;3.63;;
64857;SDS011;51335;51.148;6.950;2023-03-13T00:09:38;17.38;;;3.00;;
64857;SDS011;51335;51.148;6.950;2023-03-13T00:10:08;13.25;;;2.85;;
64857;SDS011;51335;51.148;6.950;2023-03-13T00:10:39;19.35;;;3.67;;
64857;SDS011;51335;51.148;6.950;2023-03-13T00:11:11;21.95;;;3.42;;
64857;SDS011;51335;51.148;6.950;2023-03-13T00:11:43;17.92;;;3.60;;
64857;SDS011;51335;51.148;6.950;2023-03-13T00:12:14;20.55;;;3.67;;
64857;SDS011;51335;51.148;6.950;2023-03-13T00:12:44;19.85;;;4.05;;
64857;SDS011;51335;51.148;6.950;2023-03-13T00:13:16;19.98;;;3.50;;
64857;SDS011;51335;51.148;6.950;2023-03-13T00:13:46;15.32;;;3.33;;
64857;SDS011;51335;51.148;6.950;2023-03-13T00:14:16;18.27;;;4.00;;
64857;SDS011;51335;51.148;6.950;2023-03-13T00:14:47;17.98;;;3.28;;
64857;SDS011;51335;51.148;6.950;2023-03-13T00:15:17;21.05;;;3.50;;
64857;SDS011;51335;51.148;6.950;2023-03-13T00:15:47;21.05;;;3.38;;
64857;SDS011;51335;51.148;6.950;2023-03-13T00:16:18;20.25;;;3.75;;
64857;SDS011;51335;51.148;6.950;2023-03-13T00:16:48;16.10;;;3.47;;
64857;SDS011;51335;51.148;6.950;2023-03-13T00:17:18;16.33;;;3.20;;
64857;SDS011;51335;51.148;6.950;2023-03-13T00:17:49;19.10;;;3.40;;
64857;SDS011;51335;51.148;6.950;2023-03-13T00:18:19;17.27;;;3.35;;
64857;SDS011;51335;51.148;6.950;2023-03-13T00:18:50;17.85;;;3.22;;
64857;SDS011;51335;51.148;6.950;2023-03-13T00:19:22;22.38;;;3.90;;
64857;SDS011;51335;51.148;6.950;2023-03-13T00:19:52;16.23;;;2.90;;
64857;SDS011;51335;51.148;6.950;2023-03-13T00:20:22;17.90;;;3.38;;
64857;SDS011;51335;51.148;6.950;2023-03-13T00:20:59;23.42;;;3.50;;
64857;SDS011;51335;51.148;6.950;2023-03-13T00:21:30;18.70;;;3.08;;
64857;SDS011;51335;51.148;6.950;2023-03-13T00:22:01;17.33;;;3.63;;
64857;SDS011;51335;51.148;6.950;2023-03-13T00:22:31;18.48;;;3.50;;
64857;SDS011;51335;51.148;6.950;2023-03-13T00:23:02;17.58;;;3.38;;
64857;SDS011;51335;51.148;6.950;2023-03-13T00:23:32;18.77;;;3.33;;
64857;SDS011;51335;51.148;6.950;2023-03-13T00:24:03;15.43;;;2.83;;
64857;SDS011;51335;51.148;6.950;2023-03-13T00:24:34;20.20;;;3.47;;
64857;SDS011;51335;51.148;6.950;2023-03-13T00:25:04;20.60;;;3.50;;
64857;SDS011;51335;51.148;6.950;2023-03-13T00:25:35;20.77;;;3.25;;
64857;SDS011;51335;51.148;6.950;2023-03-13T00:26:06;19.75;;;3.15;;
64857;SDS011;51335;51.148;6.950;2023-03-13T00:26:38;16.75;;;3.65;;
64857;SDS011;51335;51.148;6.950;2023-03-13T00:27:08;19.60;;;3.15;;
64857;SDS011;51335;51.148;6.950;2023-03-13T00:27:38;20.60;;;3.40;;
64857;SDS011;51335;51.148;6.950;2023-03-13T00:28:09;19.52;;;3.97;;
64857;SDS011;51335;51.148;6.950;2023-03-13T00:28:39;23.15;;;3.92;;
64857;SDS011;51335;51.148;6.950;2023-03-13T00:29:11;19.77;;;3.60;;
64857;SDS011;51335;51.148;6.950;2023-03-13T00:29:41;15.50;;;3.15;;
64857;SDS011;51335;51.148;6.950;2023-03-13T00:30:11;17.05;;;3.40;;
64857;SDS011;51335;51.148;6.950;2023-03-13T00:30:42;18.42;;;3.28;;
64857;SDS011;51335;51.148;6.950;2023-03-13T00:31:13;18.25;;;3.50;;
64857;SDS011;51335;51.148;6.950;2023-03-13T00:32:10;16.55;;;3.25;;
64857;SDS011;51335;51.148;6.950;2023-03-13T00:32:41;21.85;;;3.45;;
64857;SDS011;51335;51.148;6.950;2023-03-13T00:33:12;20.65;;;3.05;;
64857;SDS011;51335;51.148;6.950;2023-03-13T00:33:43;19.48;;;4.13;;
64857;SDS011;51335;51.148;6.950;2023-03-13T00:34:15;20.00;;;3.33;;
64857;SDS011;51335;51.148;6.950;2023-03-13T00:34:45;14.40;;;2.60;;
64857;SDS011;51335;51.148;6.950;2023-03-13T00:35:15;22.05;;;3.33;;
64857;SDS011;51335;51.148;6.950;2023-03-13T00:35:46;17.02;;;3.28;;
64857;SDS011;51335;51.148;6.950;2023-03-13T00:36:17;17.05;;;2.90;;
64857;SDS011;51335;51.148;6.950;2023-03-13T00:36:51;16.63;;;3.13;;
64857;SDS011;51335;51.148;6.950;2023-03-13T00:37:22;17.45;;;2.78;;
64857;SDS011;51335;51.148;6.950;2023-03-13T00:37:53;17.88;;;3.45;;
64857;SDS011;51335;51.148;6.950;2023-03-13T00:38:23;19.63;;;3.33;;
64857;SDS011;51335;51.148;6.950;2023-03-13T00:38:53;16.13;;;3.20;;
64857;SDS011;51335;51.148;6.950;2023-03-13T00:39:24;15.43;;;2.95;;
64857;SDS011;51335;51.148;6.950;2023-03-13T00:39:54;16.40;;;3.08;;
64857;SDS011;51335;51.148;6.950;2023-03-13T00:40:25;15.68;;;3.28;;
64857;SDS011;51335;51.148;6.950;2023-03-13T00:40:59;17.23;;;2.70;;
64857;SDS011;51335;51.148;6.950;2023-03-13T00:42:06;17.20;;;4.10;;
64857;SDS011;51335;51.148;6.950;2023-03-13T00:42:36;23.48;;;3.33;;
64857;SDS011;51335;51.148;6.950;2023-03-13T00:43:07;14.60;;;2.95;;
64857;SDS011;51335;51.148;6.950;2023-03-13T00:43:37;13.88;;;3.05;;
64857;SDS011;51335;51.148;6.950;2023-03-13T00:44:08;19.58;;;3.47;;
64857;SDS011;51335;51.148;6.950;2023-03-13T00:44:39;14.00;;;2.97;;
64857;SDS011;51335;51.148;6.950;2023-03-13T00:45:09;17.75;;;3.45;;
64857;SDS011;51335;51.148;6.950;2023-03-13T00:45:40;17.77;;;3.53;;
64857;SDS011;51335;51.148;6.950;2023-03-13T00:46:11;14.30;;;2.88;;
64857;SDS011;51335;51.148;6.950;2023-03-13T00:46:43;17.83;;;3.30;;
64857;SDS011;51335;51.148;6.950;2023-03-13T00:47:13;18.10;;;3.35;;
64857;SDS011;51335;51.148;6.950;2023-03-13T00:47:43;18.02;;;3.13;;
64857;SDS011;51335;51.148;6.950;2023-03-13T00:48:13;18.50;;;3.38;;
64857;SDS011;51335;51.148;6.950;2023-03-13T00:48:44;14.45;;;2.78;;
64857;SDS011;51335;51.148;6.950;2023-03-13T00:49:14;19.45;;;3.13;;
64857;SDS011;51335;51.148;6.950;2023-03-13T00:49:44;19.17;;;3.33;;
64857;SDS011;51335;51.148;6.950;2023-03-13T00:50:15;20.98;;;3.38;;
64857;SDS011;51335;51.148;6.950;2023-03-13T00:50:45;12.52;;;2.85;;
64857;SDS011;51335;51.148;6.950;2023-03-13T00:51:16;14.13;;;2.75;;
64857;SDS011;51335;51.148;6.950;2023-03-13T00:51:47;17.67;;;3.20;;
64857;SDS011;51335;51.148;6.950;2023-03-13T00:52:17;17.63;;;3.20;;
64857;SDS011;51335;51.148;6.950;2023-03-13T00:52:48;18.73;;;3.25;;
64857;SDS011;51335;51.148;6.950;2023-03-13T00:53:18;16.40;;;3.13;;
64857;SDS011;51335;51.148;6.950;2023-03-13T00:53:48;16.50;;;2.83;;
64857;SDS011;51335;51.148;6.950;2023-03-13T00:54:19;16.75;;;2.72;;
64857;SDS011;51335;51.148;6.950;2023-03-13T00:54:49;20.25;;;3.55;;
64857;SDS011;51335;51.148;6.950;2023-03-13T00:55:19;17.83;;;2.95;;
64857;SDS011;51335;51.148;6.950;2023-03-13T00:55:50;20.40;;;3.60;;
64857;SDS011;51335;51.148;6.950;2023-03-13T00:56:26;15.18;;;2.97;;
64857;SDS011;51335;51.148;6.950;2023-03-13T00:56:56;21.45;;;3.35;;
64857;SDS011;51335;51.148;6.950;2023-03-13T00:57:27;18.95;;;3.22;;
64857;SDS011;51335;51.148;6.950;2023-03-13T00:57:57;18.75;;;3.22;;
64857;SDS011;51335;51.148;6.950;2023-03-13T00:58:28;12.93;;;3.10;;
64857;SDS011;51335;51.148;6.950;2023-03-13T00:58:59;16.98;;;2.58;;
64857;SDS011;51335;51.148;6.950;2023-03-13T00:59:30;19.77;;;3.42;;
64857;SDS011;51335;51.148;6.950;2023-03-13T01:00:00;19.33;;;3.53;;
64857;SDS011;51335;51.148;6.950;2023-03-13T01:00:30;18.60;;;3.30;;
64857;SDS011;51335;51.148;6.950;2023-03-13T01:01:07;17.13;;;3.33;;
64857;SDS011;51335;51.148;6.950;2023-03-13T01:01:41;18.83;;;3.30;;
64857;SDS011;51335;51.148;6.950;2023-03-13T01:02:11;15.55;;;2.88;;
64857;SDS011;51335;51.148;6.950;2023-03-13T01:02:42;17.58;;;3.20;;
64857;SDS011;51335;51.148;6.950;2023-03-13T01:03:12;15.15;;;2.85;;
64857;SDS011;51335;51.148;6.950;2023-03-13T01:03:44;19.55;;;3.25;;
64857;SDS011;51335;51.148;6.950;2023-03-13T01:04:19;21.33;;;3.60;;
64857;SDS011;51335;51.148;6.950;2023-03-13T01:04:49;22.40;;;3.72;;
64857;SDS011;51335;51.148;6.950;2023-03-13T01:05:19;18.55;;;3.17;;
64857;SDS011;51335;51.148;6.950;2023-03-13T01:05:56;18.48;;;3.40;;
64857;SDS011;51335;51.148;6.950;2023-03-13T01:06:28;16.23;;;3.00;;
64857;SDS011;51335;51.148;6.950;2023-03-13T01:07:00;18.80;;;3.80;;
64857;SDS011;51335;51.148;6.950;2023-03-13T01:07:30;16.77;;;3.20;;
64857;SDS011;51335;51.148;6.950;2023-03-13T01:08:01;14.60;;;3.17;;
64857;SDS011;51335;51.148;6.950;2023-03-13T01:08:31;22.80;;;3.58;;
64857;SDS011;51335;51.148;6.950;2023-03-13T01:09:02;19.35;;;3.90;;
64857;SDS011;51335;51.148;6.950;2023-03-13T01:09:34;22.40;;;3.60;;
64857;SDS011;51335;51.148;6.950;2023-03-13T01:10:04;17.23;;;3.33;;
64857;SDS011;51335;51.148;6.950;2023-03-13T01:10:35;17.08;;;2.90;;
64857;SDS011;51335;51.148;6.950;2023-03-13T01:11:09;12.45;;;3.00;;
64857;SDS011;51335;51.148;6.950;2023-03-13T01:11:42;16.65;;;3.10;;
64857;SDS011;51335;51.148;6.950;2023-03-13T01:12:13;16.42;;;3.30;;
64857;SDS011;51335;51.148;6.950;2023-03-13T01:12:43;16.77;;;3.33;;
64857;SDS011;51335;51.148;6.950;2023-03-13T01:13:13;17.33;;;3.30;;
64857;SDS011;51335;51.148;6.950;2023-03-13T01:13:44;18.25;;;3.13;;
64857;SDS011;51335;51.148;6.950;2023-03-13T01:14:16;17.27;;;3.92;;
64857;SDS011;51335;51.148;6.950;2023-03-13T01:14:48;21.60;;;3.40;;
64857;SDS011;51335;51.148;6.950;2023-03-13T01:15:19;20.50;;;3.30;;
64857;SDS011;51335;51.148;6.950;2023-03-13T01:15:50;17.02;;;2.95;;
64857;SDS011;51335;51.148;6.950;2023-03-13T01:16:20;16.75;;;3.00;;
64857;SDS011;51335;51.148;6.950;2023-03-13T01:16:51;17.35;;;3.08;;
64857;SDS011;51335;51.148;6.950;2023-03-13T01:17:21;14.82;;;2.78;;
64857;SDS011;51335;51.148;6.950;2023-03-13T01:17:51;20.58;;;3.40;;
64857;SDS011;51335;51.148;6.950;2023-03-13T01:18:22;22.85;;;3.58;;
64857;SDS011;51335;51.148;6.950;2023-03-13T01:18:53;17.92;;;3.25;;
64857;SDS011;51335;51.148;6.950;2023-03-13T01:19:25;15.40;;;3.00;;
64857;SDS011;51335;51.148;6.950;2023-03-13T01:19:55;20.23;;;3.72;;
64857;SDS011;51335;51.148;6.950;2023-03-13T01:20:26;17.80;;;3.72;;
64857;SDS011;51335;51.148;6.950;2023-03-13T01:20:58;21.80;;;3.15;;
64857;SDS011;51335;51.148;6.950;2023-03-13T01:21:29;13.10;;;2.80;;
64857;SDS011;51335;51.148;6.950;2023-03-13T01:21:59;17.23;;;3.38;;
64857;SDS011;51335;51.148;6.950;2023-03-13T01:22:30;20.98;;;3.30;;
64857;SDS011;51335;51.148;6.950;2023-03-13T01:23:00;19.67;;;3.55;;
64857;SDS011;51335;51.148;6.950;2023-03-13T01:23:30;14.80;;;3.05;;
64857;SDS011;51335;51.148;6.950;2023-03-13T01:24:01;18.55;;;2.90;;
64857;SDS011;51335;51.148;6.950;2023-03-13T01:24:31;18.30;;;3.40;;
64857;SDS011;51335;51.148;6.950;2023-03-13T01:25:02;21.50;;;3.35;;
64857;SDS011;51335;51.148;6.950;2023-03-13T01:25:34;15.45;;;3.05;;
64857;SDS011;51335;51.148;6.950;2023-03-13T01:26:06;21.20;;;3.22;;
64857;SDS011;51335;51.148;6.950;2023-03-13T01:26:37;25.80;;;4.13;;
64857;SDS011;51335;51.148;6.950;2023-03-13T01:27:07;17.83;;;3.05;;
64857;SDS011;51335;51.148;6.950;2023-03-13T01:27:38;19.88;;;3.55;;
64857;SDS011;51335;51.148;6.950;2023-03-13T01:28:08;16.63;;;3.45;;
64857;SDS011;51335;51.148;6.950;2023-03-13T01:28:38;19.35;;;3.05;;
64857;SDS011;51335;51.148;6.950;2023-03-13T01:29:09;17.48;;;3.28;;
64857;SDS011;51335;51.148;6.950;2023-03-13T01:29:39;17.80;;;3.45;;
64857;SDS011;51335;51.148;6.950;2023-03-13T01:30:10;18.10;;;3.50;;
64857;SDS011;51335;51.148;6.950;2023-03-13T01:30:41;17.02;;;3.20;;
64857;SDS011;51335;51.148;6.950;2023-03-13T01:31:12;18.55;;;3.20;;
64857;SDS011;51335;51.148;6.950;2023-03-13T01:31:44;21.55;;;3.33;;
64857;SDS011;51335;51.148;6.950;2023-03-13T01:32:14;16.83;;;3.08;;
64857;SDS011;51335;51.148;6.950;2023-03-13T01:32:44;18.48;;;3.75;;
64857;SDS011;51335;51.148;6.950;2023-03-13T01:33:14;14.98;;;3.35;;
64857;SDS011;51335;51.148;6.950;2023-03-13T01:33:46;15.95;;;3.35;;
64857;SDS011;51335;51.148;6.950;2023-03-13T01:34:17;19.27;;;4.18;;
64857;SDS011;51335;51.148;6.950;2023-03-13T01:34:47;14.45;;;3.38;;
64857;SDS011;51335;51.148;6.950;2023-03-13T01:35:17;19.10;;;3.33;;
64857;SDS011;51335;51.148;6.950;2023-03-13T01:35:48;15.55;;;2.90;;
64857;SDS011;51335;51.148;6.950;2023-03-13T01:36:18;16.23;;;3.33;;
64857;SDS011;51335;51.148;6.950;2023-03-13T01:36:48;20.92;;;4.18;;
64857;SDS011;51335;51.148;6.950;2023-03-13T01:37:19;22.85;;;3.47;;
64857;SDS011;51335;51.148;6.950;2023-03-13T01:37:49;17.08;;;3.20;;
64857;SDS011;51335;51.148;6.950;2023-03-13T01:38:19;15.95;;;3.30;;
64857;SDS011;51335;51.148;6.950;2023-03-13T01:38:50;15.65;;;3.17;;
64857;SDS011;51335;51.148;6.950;2023-03-13T01:39:22;17.50;;;3.15;;
64857;SDS011;51335;51.148;6.950;2023-03-13T01:39:52;13.98;;;3.05;;
64857;SDS011;51335;51.148;6.950;2023-03-13T01:40:23;17.50;;;3.42;;
64857;SDS011;51335;51.148;6.950;2023-03-13T01:40:53;20.45;;;3.15;;
64857;SDS011;51335;51.148;6.950;2023-03-13T01:41:23;19.05;;;3.25;;
64857;SDS011;51335;51.148;6.950;2023-03-13T01:41:55;16.10;;;2.90;;
64857;SDS011;51335;51.148;6.950;2023-03-13T01:42:25;24.50;;;3.60;;
64857;SDS011;51335;51.148;6.950;2023-03-13T01:42:56;16.05;;;3.13;;
64857;SDS011;51335;51.148;6.950;2023-03-13T01:43:29;19.15;;;3.47;;
64857;SDS011;51335;51.148;6.950;2023-03-13T01:44:01;20.23;;;3.70;;
64857;SDS011;51335;51.148;6.950;2023-03-13T01:44:51;15.20;;;2.67;;
64857;SDS011;51335;51.148;6.950;2023-03-13T01:46:24;20.40;;;2.95;;
64857;SDS011;51335;51.148;6.950;2023-03-13T01:46:55;23.02;;;3.15;;
64857;SDS011;51335;51.148;6.950;2023-03-13T01:47:25;13.07;;;2.40;;
64857;SDS011;51335;51.148;6.950;2023-03-13T01:47:58;16.33;;;2.65;;
64857;SDS011;51335;51.148;6.950;2023-03-13T01:48:30;19.52;;;2.92;;
64857;SDS011;51335;51.148;6.950;2023-03-13T01:49:06;19.55;;;2.92;;
64857;SDS011;51335;51.148;6.950;2023-03-13T01:49:39;16.83;;;2.75;;
64857;SDS011;51335;51.148;6.950;2023-03-13T01:50:10;21.23;;;3.10;;
64857;SDS011;51335;51.148;6.950;2023-03-13T01:50:40;17.63;;;3.00;;
64857;SDS011;51335;51.148;6.950;2023-03-13T01:51:12;20.98;;;3.72;;
64857;SDS011;51335;51.148;6.950;2023-03-13T01:52:18;16.42;;;3.38;;
64857;SDS011;51335;51.148;6.950;2023-03-13T01:52:52;15.93;;;3.45;;
64857;SDS011;51335;51.148;6.950;2023-03-13T01:53:23;15.23;;;3.25;;
64857;SDS011;51335;51.148;6.950;2023-03-13T01:54:41;18.80;;;2.67;;
64857;SDS011;51335;51.148;6.950;2023-03-13T01:55:20;16.25;;;2.90;;
64857;SDS011;51335;51.148;6.950;2023-03-13T01:55:51;18.05;;;2.90;;
64857;SDS011;51335;51.148;6.950;2023-03-13T01:56:24;13.85;;;3.13;;
64857;SDS011;51335;51.148;6.950;2023-03-13T01:57:05;14.02;;;2.90;;
64857;SDS011;51335;51.148;6.950;2023-03-13T01:57:50;20.20;;;2.92;;
64857;SDS011;51335;51.148;6.950;2023-03-13T01:58:22;15.90;;;2.60;;
64857;SDS011;51335;51.148;6.950;2023-03-13T01:58:52;21.00;;;3.00;;
64857;SDS011;51335;51.148;6.950;2023-03-13T01:59:27;13.57;;;2.78;;
64857;SDS011;51335;51.148;6.950;2023-03-13T02:00:08;17.80;;;3.17;;
64857;SDS011;51335;51.148;6.950;2023-03-13T02:00:39;18.58;;;2.63;;
64857;SDS011;51335;51.148;6.950;2023-03-13T02:01:11;16.20;;;3.08;;
64857;SDS011;51335;51.148;6.950;2023-03-13T02:01:43;12.98;;;2.50;;
64857;SDS011;51335;51.148;6.950;2023-03-13T02:02:16;19.10;;;2.47;;
64857;SDS011;51335;51.148;6.950;2023-03-13T02:02:47;16.60;;;2.67;;
64857;SDS011;51335;51.148;6.950;2023-03-13T02:03:20;17.35;;;2.60;;
64857;SDS011;51335;51.148;6.950;2023-03-13T02:03:51;16.08;;;2.65;;
64857;SDS011;51335;51.148;6.950;2023-03-13T02:04:22;13.13;;;2.55;;
64857;SDS011;51335;51.148;6.950;2023-03-13T02:04:54;17.25;;;3.13;;
64857;SDS011;51335;51.148;6.950;2023-03-13T02:05:28;16.38;;;3.10;;
64857;SDS011;51335;51.148;6.950;2023-03-13T02:06:00;16.10;;;3.22;;
64857;SDS011;51335;51.148;6.950;2023-03-13T02:06:32;15.60;;;2.60;;
64857;SDS011;51335;51.148;6.950;2023-03-13T02:07:11;14.18;;;3.00;;
64857;SDS011;51335;51.148;6.950;2023-03-13T02:07:56;19.67;;;3.45;;
64857;SDS011;51335;51.148;6.950;2023-03-13T02:08:32;11.60;;;2.55;;
64857;SDS011;51335;51.148;6.950;2023-03-13T02:09:11;15.00;;;2.40;;
64857;SDS011;51335;51.148;6.950;2023-03-13T02:09:44;13.77;;;2.63;;
64857;SDS011;51335;51.148;6.950;2023-03-13T02:10:19;14.10;;;2.72;;
64857;SDS011;51335;51.148;6.950;2023-03-13T02:10:52;19.52;;;2.95;;
64857;SDS011;51335;51.148;6.950;2023-03-13T02:12:07;14.00;;;2.42;;
64857;SDS011;51335;51.148;6.950;2023-03-13T02:12:40;15.95;;;2.40;;
64857;SDS011;51335;51.148;6.950;2023-03-13T02:13:11;18.55;;;3.30;;
64857;SDS011;51335;51.148;6.950;2023-03-13T02:13:42;15.68;;;2.60;;
64857;SDS011;51335;51.148;6.950;2023-03-13T02:14:12;13.32;;;2.40;;
64857;SDS011;51335;51.148;6.950;2023-03-13T02:14:45;10.60;;;2.63;;
64857;SDS011;51335;51.148;6.950;2023-03-13T02:15:19;16.25;;;2.42;;
64857;SDS011;51335;51.148;6.950;2023-03-13T02:15:52;14.73;;;3.08;;
64857;SDS011;51335;51.148;6.950;2023-03-13T02:16:22;12.45;;;2.70;;
64857;SDS011;51335;51.148;6.950;2023-03-13T02:16:53;15.10;;;2.55;;
64857;SDS011;51335;51.148;6.950;2023-03-13T02:17:24;11.73;;;2.30;;
64857;SDS011;51335;51.148;6.950;2023-03-13T02:17:56;10.00;;;2.20;;
64857;SDS011;51335;51.148;6.950;2023-03-13T02:18:27;15.88;;;2.90;;
64857;SDS011;51335;51.148;6.950;2023-03-13T02:18:57;11.60;;;2.47;;
64857;SDS011;51335;51.148;6.950;2023-03-13T02:20:02;9.45;;;2.13;;
64857;SDS011;51335;51.148;6.950;2023-03-13T02:20:33;16.13;;;2.65;;
64857;SDS011;51335;51.148;6.950;2023-03-13T02:22:16;13.98;;;2.60;;
64857;SDS011;51335;51.148;6.950;2023-03-13T02:23:59;11.70;;;2.40;;
64857;SDS011;51335;51.148;6.950;2023-03-13T02:24:57;14.88;;;2.47;;
64857;SDS011;51335;51.148;6.950;2023-03-13T02:26:02;7.60;;;2.28;;
64857;SDS011;51335;51.148;6.950;2023-03-13T02:26:32;10.52;;;2.30;;
64857;SDS011;51335;51.148;6.950;2023-03-13T02:27:03;15.55;;;2.58;;
64857;SDS011;51335;51.148;6.950;2023-03-13T02:27:33;17.83;;;3.08;;
64857;SDS011;51335;51.148;6.950;2023-03-13T02:28:04;11.10;;;2.17;;
64857;SDS011;51335;51.148;6.950;2023-03-13T02:28:39;12.77;;;2.10;;
64857;SDS011;51335;51.148;6.950;2023-03-13T02:29:10;15.77;;;2.30;;
64857;SDS011;51335;51.148;6.950;2023-03-13T02:29:40;13.50;;;2.20;;
64857;SDS011;51335;51.148;6.950;2023-03-13T02:30:12;14.05;;;2.50;;
64857;SDS011;51335;51.148;6.950;2023-03-13T02:30:44;12.85;;;2.45;;
64857;SDS011;51335;51.148;6.950;2023-03-13T02:31:16;11.10;;;2.25;;
64857;SDS011;51335;51.148;6.950;2023-03-13T02:31:46;11.30;;;2.33;;
64857;SDS011;51335;51.148;6.950;2023-03-13T02:32:17;11.10;;;2.33;;
64857;SDS011;51335;51.148;6.950;2023-03-13T02:32:48;13.05;;;2.17;;
64857;SDS011;51335;51.148;6.950;2023-03-13T02:33:19;7.90;;;1.95;;
64857;SDS011;51335;51.148;6.950;2023-03-13T02:33:51;9.38;;;2.00;;
64857;SDS011;51335;51.148;6.950;2023-03-13T02:34:23;12.00;;;2.55;;
64857;SDS011;51335;51.148;6.950;2023-03-13T02:35:00;12.00;;;2.20;;
64857;SDS011;51335;51.148;6.950;2023-03-13T02:35:33;10.95;;;2.20;;
64857;SDS011;51335;51.148;6.950;2023-03-13T02:36:04;12.50;;;2.22;;
64857;SDS011;51335;51.148;6.950;2023-03-13T02:36:36;12.27;;;2.22;;
64857;SDS011;51335;51.148;6.950;2023-03-13T02:37:06;9.65;;;2.00;;
64857;SDS011;51335;51.148;6.950;2023-03-13T02:37:37;11.40;;;2.15;;
64857;SDS011;51335;51.148;6.950;2023-03-13T02:38:10;13.50;;;2.47;;
64857;SDS011;51335;51.148;6.950;2023-03-13T02:38:52;8.68;;;1.92;;
64857;SDS011;51335;51.148;6.950;2023-03-13T02:39:27;8.20;;;1.85;;
64857;SDS011;51335;51.148;6.950;2023-03-13T02:40:00;10.43;;;2.33;;
64857;SDS011;51335;51.148;6.950;2023-03-13T02:40:34;12.07;;;2.25;;
64857;SDS011;51335;51.148;6.950;2023-03-13T02:41:07;14.73;;;2.00;;
64857;SDS011;51335;51.148;6.950;2023-03-13T02:41:39;11.13;;;2.00;;
64857;SDS011;51335;51.148;6.950;2023-03-13T02:42:11;13.20;;;1.90;;
64857;SDS011;51335;51.148;6.950;2023-03-13T02:42:44;12.35;;;1.90;;
64857;SDS011;51335;51.148;6.950;2023-03-13T02:43:24;12.15;;;2.30;;
64857;SDS011;51335;51.148;6.950;2023-03-13T02:43:58;11.25;;;2.35;;
64857;SDS011;51335;51.148;6.950;2023-03-13T02:44:28;13.57;;;2.17;;
64857;SDS011;51335;51.148;6.950;2023-03-13T02:44:58;11.43;;;2.17;;
64857;SDS011;51335;51.148;6.950;2023-03-13T02:45:29;12.32;;;2.47;;
64857;SDS011;51335;51.148;6.950;2023-03-13T02:46:04;9.48;;;2.70;;
64857;SDS011;51335;51.148;6.950;2023-03-13T02:46:46;12.45;;;2.05;;
64857;SDS011;51335;51.148;6.950;2023-03-13T02:47:22;13.48;;;2.20;;
64857;SDS011;51335;51.148;6.950;2023-03-13T02:47:55;12.27;;;2.10;;
64857;SDS011;51335;51.148;6.950;2023-03-13T02:48:36;12.88;;;2.05;;
64857;SDS011;51335;51.148;6.950;2023-03-13T02:49:18;8.85;;;2.05;;
64857;SDS011;51335;51.148;6.950;2023-03-13T02:49:49;9.27;;;1.92;;
64857;SDS011;51335;51.148;6.950;2023-03-13T02:50:19;10.68;;;2.10;;
64857;SDS011;51335;51.148;6.950;2023-03-13T02:50:50;11.73;;;2.10;;
64857;SDS011;51335;51.148;6.950;2023-03-13T02:52:11;8.65;;;1.98;;
64857;SDS011;51335;51.148;6.950;2023-03-13T02:52:45;12.00;;;2.08;;
64857;SDS011;51335;51.148;6.950;2023-03-13T02:53:19;12.23;;;2.15;;
64857;SDS011;51335;51.148;6.950;2023-03-13T02:53:50;18.52;;;2.42;;
64857;SDS011;51335;51.148;6.950;2023-03-13T02:54:23;9.07;;;1.75;;
64857;SDS011;51335;51.148;6.950;2023-03-13T02:55:00;10.30;;;2.05;;
64857;SDS011;51335;51.148;6.950;2023-03-13T02:55:38;11.57;;;2.13;;
64857;SDS011;51335;51.148;6.950;2023-03-13T02:56:11;11.23;;;1.98;;
64857;SDS011;51335;51.148;6.950;2023-03-13T02:56:44;7.15;;;1.65;;
64857;SDS011;51335;51.148;6.950;2023-03-13T02:57:17;12.95;;;2.10;;
64857;SDS011;51335;51.148;6.950;2023-03-13T02:57:47;10.25;;;2.10;;
64857;SDS011;51335;51.148;6.950;2023-03-13T02:58:17;9.40;;;2.10;;
64857;SDS011;51335;51.148;6.950;2023-03-13T02:58:48;11.93;;;2.10;;
64857;SDS011;51335;51.148;6.950;2023-03-13T02:59:18;9.32;;;1.90;;
64857;SDS011;51335;51.148;6.950;2023-03-13T02:59:49;12.40;;;2.20;;
64857;SDS011;51335;51.148;6.950;2023-03-13T03:00:19;10.85;;;1.83;;
64857;SDS011;51335;51.148;6.950;2023-03-13T03:00:50;11.40;;;2.15;;
64857;SDS011;51335;51.148;6.950;2023-03-13T03:01:21;11.00;;;2.08;;
64857;SDS011;51335;51.148;6.950;2023-03-13T03:01:51;9.75;;;2.28;;
64857;SDS011;51335;51.148;6.950;2023-03-13T03:02:22;9.88;;;2.20;;
64857;SDS011;51335;51.148;6.950;2023-03-13T03:02:53;14.68;;;2.15;;
64857;SDS011;51335;51.148;6.950;2023-03-13T03:03:23;10.68;;;2.15;;
64857;SDS011;51335;51.148;6.950;2023-03-13T03:03:53;8.00;;;1.80;;
64857;SDS011;51335;51.148;6.950;2023-03-13T03:04:24;9.27;;;1.95;;
64857;SDS011;51335;51.148;6.950;2023-03-13T03:04:55;11.73;;;1.90;;
64857;SDS011;51335;51.148;6.950;2023-03-13T03:05:25;7.45;;;1.73;;
64857;SDS011;51335;51.148;6.950;2023-03-13T03:05:55;7.55;;;1.98;;
64857;SDS011;51335;51.148;6.950;2023-03-13T03:06:26;9.82;;;1.83;;
64857;SDS011;51335;51.148;6.950;2023-03-13T03:06:57;10.82;;;2.13;;
64857;SDS011;51335;51.148;6.950;2023-03-13T03:07:27;12.85;;;1.88;;
64857;SDS011;51335;51.148;6.950;2023-03-13T03:07:57;9.10;;;1.90;;
64857;SDS011;51335;51.148;6.950;2023-03-13T03:08:28;9.80;;;1.80;;
64857;SDS011;51335;51.148;6.950;2023-03-13T03:08:58;8.98;;;2.00;;
64857;SDS011;51335;51.148;6.950;2023-03-13T03:09:28;7.55;;;1.70;;
64857;SDS011;51335;51.148;6.950;2023-03-13T03:09:59;11.30;;;1.80;;
64857;SDS011;51335;51.148;6.950;2023-03-13T03:10:29;10.27;;;2.00;;
64857;SDS011;51335;51.148;6.950;2023-03-13T03:11:00;9.95;;;1.88;;
64857;SDS011;51335;51.148;6.950;2023-03-13T03:11:30;7.68;;;1.80;;
64857;SDS011;51335;51.148;6.950;2023-03-13T03:12:00;8.43;;;1.40;;
64857;SDS011;51335;51.148;6.950;2023-03-13T03:12:31;9.35;;;2.22;;
64857;SDS011;51335;51.148;6.950;2023-03-13T03:13:01;7.65;;;1.70;;
64857;SDS011;51335;51.148;6.950;2023-03-13T03:13:32;10.15;;;1.90;;
64857;SDS011;51335;51.148;6.950;2023-03-13T03:14:02;9.85;;;1.83;;
64857;SDS011;51335;51.148;6.950;2023-03-13T03:14:33;8.13;;;1.50;;
64857;SDS011;51335;51.148;6.950;2023-03-13T03:15:04;8.68;;;1.85;;
64857;SDS011;51335;51.148;6.950;2023-03-13T03:15:34;11.70;;;1.85;;
64857;SDS011;51335;51.148;6.950;2023-03-13T03:16:05;7.80;;;1.63;;
64857;SDS011;51335;51.148;6.950;2023-03-13T03:16:40;8.40;;;1.65;;
64857;SDS011;51335;51.148;6.950;2023-03-13T03:17:11;7.72;;;1.45;;